KIND/IND METAR and TAF weather

Enter ICAO airport designator
Station Type Date Time Source
KIND METAR 2019/06/17 05:54 UTC NOAA

KIND 170554Z 21004KT 10SM BKN015 OVC090 21/20 A2990 RMK AO2 SLP118 60003 T02060200 10250 20206 50000


Station Type Date Time Source
KIND Decoded METAR 2019/06/17 05:54 UTC NOAA

INDIANAPOLIS INTERNATIONAL AIRPORT , IN, United States (KIND) 39-43N 86-17W 242M
Jun 17, 2019 - 01:54 AM EDT / 2019.06.17 0554 UTC
Wind: from the SSW (210 degrees) at 5 MPH (4 KT):0
Visibility: 10 mile(s):0
Sky conditions: overcast
Temperature: 69.1 F (20.6 C)
Dew Point: 68.0 F (20.0 C)
Relative Humidity: 96%
Pressure (altimeter): 29.9 in. Hg (1012 hPa)
Pressure tendency: 0.00 inches (0.0 hPa) higher than three hours ago
ob: KIND 170554Z 21004KT 10SM BKN015 OVC090 21/20 A2990 RMK AO2 SLP118 60003 T02060200 10250 20206 50000
cycle: 6

Station Type Date Time Source
KIND TAF 2019/06/17 06:24 UTC NOAA

TAF KIND 170522Z 1706/1812 VRB04KT P6SM OVC060
FM170900 VRB04KT P6SM OVC030
FM171600 VRB04KT P6SM VCSH BKN025
FM172100 VRB04KT 6SM SHRA BR VCTS BKN040CB
FM180100 VRB04KT P6SM OVC030

Example: see airport list